KKLS/KLS METAR and TAF weather

Enter ICAO airport designator
Station Type Date Time Source
KKLS METAR 2021/04/18 02:56 UTC NOAA

KKLS 180256Z AUTO VRB06KT 10SM CLR 23/02 A3011 RMK AO2 SLP199 T02330017 55001


Station Type Date Time Source
KKLS Decoded METAR 2021/04/18 02:56 UTC NOAA

Kelso, Kelso-Longview Airport, WA, United States (KKLS) 46-07N 122-54W
Apr 17, 2021 - 10:56 PM EDT / 2021.04.18 0256 UTC
Wind: Variable at 7 MPH (6 KT):0
Visibility: 10 mile(s):0
Sky conditions: clear
Temperature: 73.9 F (23.3 C)
Dew Point: 35.1 F (1.7 C)
Relative Humidity: 24%
Pressure (altimeter): 30.11 in. Hg (1019 hPa)
Pressure tendency: 0.00 inches (0.1 hPa) lower than three hours ago
ob: KKLS 180256Z AUTO VRB06KT 10SM CLR 23/02 A3011 RMK AO2 SLP199 T02330017 55001
cycle: 3

Station Type Date Time Source
KKLS TAF UTC NOAA

Error!

Example: see airport list